首页
METAR-TAF:

METAR-TAF

机场 :

Whiteman Air Force Base

Knob Noster, 密蘇里州, 美国

纬度: 38-44N, 经度: 093-33W, 海拔: 265米

当前天气观测

该预报发布于52分钟前的13:56 UTC
静风
温度 23°C
湿度 94%
气压 1016 hPa
能見度: 16.1公里
散云层高于20000英尺

METAR: KSZL 121356Z 00000KT 10SM SCT200 23/22 A3001 RMK AO2A SLP159 T02340094

时间: 09:48 (14:48 UTC)

预报

该预报发布于1小时和58分钟前的12:50 UTC
预报有效从12日的 12点(UTC)到 13日的 17点(UTC)
风速9节,风向东南
能见度10公里或以上
少量云层高于7000英尺
散云层高于25000英尺

TAF: KSZL 121250Z 1212/1317 14009KT 9999 FEW070 SCT250 QNH2991INS TX29/1219Z TN19/1212Z

超过4000个机场的气象观测和天气预报(METAR&TAF报告)。

可查询的气象台以黄色和红色小点在地图上表示。

将鼠标移到小点上方,可查看气象台名称。

然后点击查看天气观测和预报。

如需切换地图:点击带黑十字的绿色按钮放大地图;点击带横线的绿色按钮缩小地图;或者点击绿色箭头查看邻近地区的地图。


METAR-TAF: